createdAt,value
2017-06-17T00:01:13.396Z,89.70
2017-06-17T00:03:42.451Z,89.80
2017-06-17T00:06:10.728Z,89.80
2017-06-17T00:08:38.997Z,89.80
2017-06-17T00:11:07.356Z,89.90
2017-06-17T00:13:35.737Z,89.80
2017-06-17T00:16:03.992Z,89.90
2017-06-17T00:18:32.302Z,90.00
2017-06-17T00:21:00.556Z,90.30
2017-06-17T00:23:28.938Z,90.00
2017-06-17T00:25:57.222Z,90.00
2017-06-17T00:28:25.516Z,90.10
2017-06-17T00:30:53.874Z,90.10
2017-06-17T00:33:22.137Z,90.10
2017-06-17T00:35:50.445Z,90.30
2017-06-17T00:38:18.709Z,90.40
2017-06-17T00:40:46.989Z,90.30
2017-06-17T00:43:15.360Z,90.30
2017-06-17T00:45:43.642Z,90.50
2017-06-17T00:48:11.944Z,90.50
2017-06-17T00:50:40.298Z,90.60
2017-06-17T00:53:08.681Z,90.70
2017-06-17T00:55:37.053Z,90.70
2017-06-17T00:58:05.320Z,90.80
2017-06-17T01:00:33.639Z,90.90
2017-06-17T01:03:02.691Z,90.90
2017-06-17T01:05:30.983Z,90.90
2017-06-17T01:07:59.273Z,90.90
2017-06-17T01:10:27.641Z,90.90
2017-06-17T01:12:56.032Z,91.00
2017-06-17T01:15:24.313Z,90.90
2017-06-17T01:17:52.684Z,91.00
2017-06-17T01:20:21.057Z,90.90
2017-06-17T01:22:49.332Z,91.00
2017-06-17T01:25:17.729Z,91.00
2017-06-17T01:27:46.092Z,90.90
2017-06-17T01:30:14.374Z,90.90
2017-06-17T01:32:42.761Z,91.10
2017-06-17T01:35:11.028Z,91.00
2017-06-17T01:37:39.406Z,90.90
2017-06-17T01:40:07.667Z,90.90
2017-06-17T01:42:36.758Z,90.90
2017-06-17T01:45:05.802Z,90.80
2017-06-17T01:47:34.065Z,90.80
2017-06-17T01:50:02.385Z,90.80
2017-06-17T01:52:30.662Z,90.60
2017-06-17T01:54:58.938Z,90.70
2017-06-17T01:57:27.317Z,90.50
2017-06-17T01:59:55.572Z,90.40
2017-06-17T02:02:23.864Z,90.30
2017-06-17T02:04:52.134Z,90.40
2017-06-17T02:07:20.416Z,90.30
2017-06-17T02:09:48.693Z,90.30
2017-06-17T02:12:16.953Z,90.40
2017-06-17T02:14:45.260Z,90.40
2017-06-17T02:17:13.620Z,90.40
2017-06-17T02:19:41.903Z,90.40
2017-06-17T02:22:10.294Z,90.30
2017-06-17T02:24:38.656Z,90.30
2017-06-17T02:27:07.040Z,90.40
2017-06-17T02:29:35.302Z,90.40
2017-06-17T02:32:03.608Z,90.40
2017-06-17T02:34:31.973Z,90.40
2017-06-17T02:37:00.251Z,90.40
2017-06-17T02:39:28.625Z,90.50
2017-06-17T02:41:56.959Z,90.40
2017-06-17T02:44:25.222Z,90.30
2017-06-17T02:46:53.613Z,90.40
2017-06-17T02:49:21.877Z,90.30
2017-06-17T02:51:50.250Z,89.00
2017-06-17T02:54:18.546Z,88.50
2017-06-17T02:56:46.808Z,88.60
2017-06-17T02:59:15.195Z,89.00
2017-06-17T03:01:43.476Z,88.40
2017-06-17T03:04:11.868Z,88.10
2017-06-17T03:06:40.197Z,88.10
2017-06-17T03:09:08.472Z,88.00
2017-06-17T03:11:36.866Z,88.10
2017-06-17T03:14:05.231Z,88.40
2017-06-17T03:16:33.534Z,89.30
2017-06-17T03:19:01.989Z,88.20
2017-06-17T03:21:30.264Z,88.10
2017-06-17T03:23:58.647Z,88.20
2017-06-17T03:26:26.922Z,87.80
2017-06-17T03:28:55.349Z,87.70
2017-06-17T03:31:23.609Z,87.50
2017-06-17T03:33:52.671Z,87.50
2017-06-17T03:36:21.054Z,87.50
2017-06-17T03:38:49.328Z,87.30
2017-06-17T03:41:17.746Z,87.60
2017-06-17T03:43:46.784Z,87.00
2017-06-17T03:46:15.081Z,87.00
2017-06-17T03:48:43.352Z,86.80
2017-06-17T03:51:11.633Z,87.00
2017-06-17T03:53:39.961Z,87.00
2017-06-17T03:56:08.225Z,87.20
2017-06-17T03:58:37.282Z,87.00
2017-06-17T04:01:05.548Z,86.80
2017-06-17T04:03:33.831Z,87.10
2017-06-17T04:06:02.223Z,86.80
2017-06-17T04:08:30.595Z,87.00
2017-06-17T04:10:58.903Z,86.60
2017-06-17T04:13:27.164Z,86.60
2017-06-17T04:15:55.440Z,86.40
2017-06-17T04:18:23.722Z,86.20
2017-06-17T04:20:52.008Z,85.90
2017-06-17T04:23:21.182Z,86.10
2017-06-17T04:25:49.455Z,85.90
2017-06-17T04:28:17.785Z,85.90
2017-06-17T04:30:46.118Z,85.90
2017-06-17T04:33:14.380Z,86.10
2017-06-17T04:35:42.692Z,85.60
2017-06-17T04:38:11.768Z,85.40
2017-06-17T04:40:40.038Z,85.30
2017-06-17T04:43:08.372Z,86.00
2017-06-17T04:45:36.791Z,85.90
2017-06-17T04:48:05.076Z,85.40
2017-06-17T04:50:33.336Z,85.70
2017-06-17T04:53:01.652Z,85.90
2017-06-17T04:55:30.718Z,85.80
2017-06-17T04:57:58.975Z,85.30
2017-06-17T05:00:27.262Z,85.20
2017-06-17T05:02:55.560Z,84.90
2017-06-17T05:05:23.946Z,85.10
2017-06-17T05:07:52.230Z,84.20
2017-06-17T05:10:20.600Z,84.50
2017-06-17T05:12:48.886Z,84.70
2017-06-17T05:15:17.241Z,85.40
2017-06-17T05:17:45.536Z,84.90
2017-06-17T05:20:13.800Z,84.50
2017-06-17T05:22:42.179Z,84.30
2017-06-17T05:25:10.466Z,83.90
2017-06-17T05:27:38.751Z,84.20
2017-06-17T05:30:07.130Z,83.80
2017-06-17T05:32:35.508Z,83.60
2017-06-17T05:35:03.888Z,83.50
2017-06-17T05:37:32.173Z,83.60
2017-06-17T05:40:00.431Z,82.40
2017-06-17T05:42:28.809Z,82.40
2017-06-17T05:44:57.092Z,82.50
2017-06-17T05:47:25.476Z,81.70
2017-06-17T05:49:53.739Z,81.40
2017-06-17T05:52:22.036Z,82.50
2017-06-17T05:54:50.409Z,81.30
2017-06-17T05:57:18.660Z,81.80
2017-06-17T05:59:46.986Z,82.00
2017-06-17T06:02:16.043Z,81.20
2017-06-17T06:04:44.320Z,81.20
2017-06-17T06:07:12.716Z,82.10
2017-06-17T06:09:40.973Z,81.30
2017-06-17T06:12:09.262Z,82.40
2017-06-17T06:14:37.534Z,82.90
2017-06-17T06:17:05.913Z,82.80
2017-06-17T06:19:34.189Z,81.10
2017-06-17T06:22:02.569Z,81.80
2017-06-17T06:24:30.848Z,81.30
2017-06-17T06:26:59.108Z,81.60
2017-06-17T06:29:27.396Z,81.70
2017-06-17T06:31:55.661Z,81.10
2017-06-17T06:34:24.054Z,80.00
2017-06-17T06:36:52.317Z,80.50
2017-06-17T06:39:20.613Z,80.30
2017-06-17T06:41:48.896Z,80.40
2017-06-17T06:44:18.057Z,81.20
2017-06-17T06:46:46.377Z,81.90
2017-06-17T06:49:14.823Z,80.60
2017-06-17T06:51:43.085Z,80.00
2017-06-17T06:54:11.417Z,78.60
2017-06-17T06:56:39.692Z,75.80
2017-06-17T06:59:08.071Z,76.20
2017-06-17T07:01:36.387Z,76.10
2017-06-17T07:04:04.660Z,76.20
2017-06-17T07:06:32.938Z,76.50
2017-06-17T07:09:01.196Z,77.10
2017-06-17T07:11:29.610Z,77.30
2017-06-17T07:13:57.887Z,77.00
2017-06-17T07:16:26.264Z,74.30
2017-06-17T07:18:54.746Z,74.10
2017-06-17T07:21:23.034Z,73.50
2017-06-17T07:23:51.394Z,71.10
2017-06-17T07:26:19.671Z,70.80
2017-06-17T07:28:47.924Z,70.10
2017-06-17T07:31:16.284Z,70.00
2017-06-17T07:33:44.573Z,70.50
2017-06-17T07:36:12.868Z,71.10
2017-06-17T07:38:41.144Z,71.50
2017-06-17T07:41:09.535Z,71.10
2017-06-17T07:43:37.797Z,69.60
2017-06-17T07:46:06.047Z,70.90
2017-06-17T07:48:34.361Z,70.00
2017-06-17T07:51:02.627Z,69.80
2017-06-17T07:53:30.932Z,70.90
2017-06-17T07:55:59.217Z,70.80
2017-06-17T07:58:27.483Z,71.50
2017-06-17T08:00:55.866Z,71.80
2017-06-17T08:03:24.154Z,72.40
2017-06-17T08:05:52.480Z,72.00
2017-06-17T08:08:20.788Z,71.90
2017-06-17T08:10:49.175Z,72.10
2017-06-17T08:13:17.568Z,73.00
2017-06-17T08:15:45.821Z,73.60
2017-06-17T08:18:14.105Z,73.40
2017-06-17T08:20:42.524Z,71.80
2017-06-17T08:23:10.848Z,71.80
2017-06-17T08:25:39.880Z,71.00
2017-06-17T08:28:08.197Z,71.00
2017-06-17T08:30:36.573Z,70.90
2017-06-17T08:33:04.825Z,70.70
2017-06-17T08:35:33.099Z,69.80
2017-06-17T08:38:01.409Z,70.00
2017-06-17T08:40:29.676Z,69.90
2017-06-17T08:42:58.063Z,69.50
2017-06-17T08:45:26.441Z,69.40
2017-06-17T08:47:54.804Z,69.40
2017-06-17T08:50:23.088Z,66.30
2017-06-17T08:52:51.354Z,65.80
2017-06-17T08:55:19.754Z,66.10
2017-06-17T08:57:48.008Z,64.50
2017-06-17T09:00:16.269Z,64.80
2017-06-17T09:02:44.595Z,64.40
2017-06-17T09:05:12.864Z,63.30
2017-06-17T09:07:41.167Z,63.10
2017-06-17T09:10:10.232Z,62.40
2017-06-17T09:12:38.490Z,62.30
2017-06-17T09:15:06.793Z,63.00
2017-06-17T09:17:35.056Z,63.00
2017-06-17T09:20:04.051Z,64.00
2017-06-17T09:22:32.326Z,65.10
2017-06-17T09:25:00.592Z,65.20
2017-06-17T09:27:28.876Z,65.60
2017-06-17T09:29:57.150Z,64.00
2017-06-17T09:32:25.532Z,63.40
2017-06-17T09:34:53.830Z,62.30
2017-06-17T09:37:22.100Z,61.20
2017-06-17T09:39:50.384Z,61.00
2017-06-17T09:42:18.737Z,61.20
2017-06-17T09:44:47.073Z,62.90
2017-06-17T09:47:15.405Z,61.30
2017-06-17T09:49:43.689Z,60.20
2017-06-17T09:52:12.067Z,60.80
2017-06-17T09:54:40.454Z,61.20
2017-06-17T09:57:08.792Z,61.40
2017-06-17T09:59:37.092Z,62.20
2017-06-17T10:02:05.350Z,61.90
2017-06-17T10:04:33.656Z,60.00
2017-06-17T10:07:02.013Z,60.00
2017-06-17T10:09:30.396Z,59.40
2017-06-17T10:11:58.721Z,60.40
2017-06-17T10:14:27.078Z,62.00
2017-06-17T10:16:56.127Z,59.90
2017-06-17T10:19:24.380Z,59.70
2017-06-17T10:21:52.700Z,59.10
2017-06-17T10:24:20.981Z,58.40
2017-06-17T10:26:49.253Z,58.50
2017-06-17T10:29:17.541Z,58.30
2017-06-17T10:31:45.807Z,59.90
2017-06-17T10:34:14.191Z,58.40
2017-06-17T10:36:42.449Z,58.30
2017-06-17T10:39:10.713Z,58.30
2017-06-17T10:41:38.990Z,58.40
2017-06-17T10:44:07.259Z,57.70
2017-06-17T10:46:35.677Z,57.50
2017-06-17T10:49:03.944Z,57.00
2017-06-17T10:51:32.240Z,57.30
2017-06-17T10:54:00.526Z,57.60
2017-06-17T10:56:28.898Z,57.90
2017-06-17T10:58:57.277Z,58.10
2017-06-17T11:01:25.665Z,57.80
2017-06-17T11:03:54.020Z,57.50
2017-06-17T11:06:22.403Z,57.40
2017-06-17T11:08:50.665Z,56.90
2017-06-17T11:11:19.040Z,57.00
2017-06-17T11:13:47.327Z,56.10
2017-06-17T11:16:15.564Z,56.60
2017-06-17T11:18:43.840Z,56.30
2017-06-17T11:21:12.163Z,55.80
2017-06-17T11:23:40.543Z,55.70
2017-06-17T11:26:08.796Z,57.10
2017-06-17T11:28:37.058Z,55.40
2017-06-17T11:31:05.388Z,56.50
2017-06-17T11:33:33.766Z,55.60
2017-06-17T11:36:02.081Z,55.70
2017-06-17T11:38:30.348Z,56.40
2017-06-17T11:40:59.414Z,56.50
2017-06-17T11:43:27.693Z,56.50
2017-06-17T11:45:55.958Z,55.50
2017-06-17T11:48:24.339Z,55.20
2017-06-17T11:50:52.599Z,56.50
2017-06-17T11:53:20.877Z,56.50
2017-06-17T11:55:49.178Z,55.90
2017-06-17T11:58:17.437Z,55.20
2017-06-17T12:00:45.744Z,55.20
2017-06-17T12:03:14.811Z,53.00
2017-06-17T12:05:43.074Z,52.90
2017-06-17T12:08:11.374Z,53.80
2017-06-17T12:10:39.653Z,52.40
2017-06-17T12:13:08.020Z,49.80
2017-06-17T12:15:36.290Z,46.70
2017-06-17T12:18:04.673Z,42.90
2017-06-17T12:20:33.062Z,41.00
2017-06-17T12:23:01.313Z,38.90
2017-06-17T12:25:29.680Z,38.20
2017-06-17T12:27:57.999Z,42.00
2017-06-17T12:30:26.265Z,43.70
2017-06-17T12:32:54.636Z,42.00
2017-06-17T12:35:22.977Z,38.50
2017-06-17T12:37:51.359Z,40.20
2017-06-17T12:40:19.633Z,41.80
2017-06-17T12:42:47.903Z,43.40
2017-06-17T12:45:16.195Z,44.50
2017-06-17T12:47:44.472Z,43.70
2017-06-17T12:50:12.842Z,41.20
2017-06-17T12:52:41.134Z,37.00
2017-06-17T12:55:09.397Z,35.70
2017-06-17T12:57:37.689Z,34.60
2017-06-17T13:00:05.966Z,35.10
2017-06-17T13:02:34.263Z,34.30
2017-06-17T13:05:03.286Z,33.60
2017-06-17T13:07:32.542Z,34.10
2017-06-17T13:10:00.828Z,35.70
2017-06-17T13:12:29.114Z,38.30
2017-06-17T13:14:57.426Z,38.50
2017-06-17T13:17:26.674Z,37.70
2017-06-17T13:19:54.951Z,33.30
2017-06-17T13:22:23.248Z,33.40
2017-06-17T13:24:51.514Z,35.90
2017-06-17T13:27:19.878Z,37.40
2017-06-17T13:29:48.143Z,39.50
2017-06-17T13:32:16.403Z,38.20
2017-06-17T13:34:44.720Z,40.30
2017-06-17T13:37:13.000Z,42.00
2017-06-17T13:39:41.317Z,43.20
2017-06-17T13:42:10.409Z,42.70
2017-06-17T13:44:38.763Z,42.70
2017-06-17T13:47:07.247Z,43.40
2017-06-17T13:49:35.488Z,42.80
2017-06-17T13:52:03.807Z,42.90
2017-06-17T13:54:32.085Z,42.50
2017-06-17T13:57:00.387Z,42.60
2017-06-17T13:59:28.669Z,41.90
2017-06-17T14:01:57.689Z,43.00
2017-06-17T14:04:26.028Z,42.90
2017-06-17T14:06:54.293Z,42.70
2017-06-17T14:09:22.570Z,43.20
2017-06-17T14:11:50.859Z,43.30
2017-06-17T14:14:19.128Z,42.60
2017-06-17T14:16:47.461Z,41.10
2017-06-17T14:19:16.140Z,40.00
2017-06-17T14:22:03.188Z,40.80
2017-06-17T14:24:31.543Z,41.60
2017-06-17T14:26:59.834Z,42.70
2017-06-17T14:29:28.132Z,43.00
2017-06-17T14:31:57.194Z,44.50
2017-06-17T14:34:25.469Z,44.40
2017-06-17T14:36:53.753Z,44.20
2017-06-17T14:39:22.032Z,44.00
2017-06-17T14:41:50.397Z,42.40
2017-06-17T14:44:18.873Z,43.10
2017-06-17T14:46:47.156Z,43.40
2017-06-17T14:49:15.469Z,43.50
2017-06-17T14:51:44.502Z,43.60
2017-06-17T14:54:12.803Z,43.60
2017-06-17T14:56:41.088Z,42.80
2017-06-17T14:59:09.460Z,39.90
2017-06-17T15:01:37.745Z,39.60
2017-06-17T15:04:06.014Z,40.20
2017-06-17T15:06:34.404Z,41.70
2017-06-17T15:09:02.661Z,42.20
2017-06-17T15:11:31.045Z,42.40
2017-06-17T15:13:59.333Z,42.30
2017-06-17T15:16:27.592Z,41.90
2017-06-17T15:18:55.860Z,42.10
2017-06-17T15:21:24.167Z,43.10
2017-06-17T15:23:52.463Z,44.00
2017-06-17T15:26:21.529Z,43.50
2017-06-17T15:28:49.805Z,43.50
2017-06-17T15:31:18.085Z,44.50
2017-06-17T15:33:46.352Z,44.50
2017-06-17T15:36:14.628Z,44.30
2017-06-17T15:38:42.904Z,43.60
2017-06-17T15:41:11.195Z,40.50
2017-06-17T15:43:39.492Z,40.80
2017-06-17T15:46:07.779Z,41.30
2017-06-17T15:48:36.840Z,42.80
2017-06-17T15:51:05.114Z,42.20
2017-06-17T15:53:33.499Z,42.20
2017-06-17T15:56:01.798Z,42.00
2017-06-17T15:58:30.060Z,42.80
2017-06-17T16:00:58.466Z,42.70
2017-06-17T16:03:27.536Z,43.10
2017-06-17T16:05:55.796Z,43.10
2017-06-17T16:08:24.085Z,43.40
2017-06-17T16:10:52.485Z,43.80
2017-06-17T16:13:21.513Z,43.70
2017-06-17T16:15:49.839Z,43.70
2017-06-17T16:18:18.103Z,44.30
2017-06-17T16:20:46.487Z,44.00
2017-06-17T16:23:14.769Z,44.20
2017-06-17T16:25:43.120Z,44.50
2017-06-17T16:28:11.424Z,44.10
2017-06-17T16:30:39.701Z,43.90
2017-06-17T16:33:07.986Z,44.20
2017-06-17T16:35:36.357Z,44.40
2017-06-17T16:38:04.732Z,44.80
2017-06-17T16:40:33.003Z,44.40
2017-06-17T16:43:01.301Z,44.20
2017-06-17T16:45:29.599Z,44.70
2017-06-17T16:47:58.625Z,44.30
2017-06-17T16:50:26.941Z,44.30
2017-06-17T16:52:55.230Z,43.10
2017-06-17T16:55:23.523Z,43.10
2017-06-17T16:57:51.783Z,43.30
2017-06-17T17:00:20.049Z,44.00
2017-06-17T17:02:48.424Z,43.50
2017-06-17T17:05:16.690Z,43.60
2017-06-17T17:07:44.979Z,44.10
2017-06-17T17:10:13.258Z,43.90
2017-06-17T17:12:41.567Z,41.90
2017-06-17T17:15:10.637Z,43.10
2017-06-17T17:17:39.112Z,43.10
2017-06-17T17:20:07.498Z,42.70
2017-06-17T17:22:35.780Z,43.10
2017-06-17T17:25:04.077Z,43.50
2017-06-17T17:27:33.101Z,44.30
2017-06-17T17:30:03.482Z,45.60
2017-06-17T17:32:31.842Z,45.60
2017-06-17T17:35:00.104Z,45.80
2017-06-17T17:37:28.384Z,46.20
2017-06-17T17:39:56.647Z,46.40
2017-06-17T17:42:25.053Z,47.20
2017-06-17T17:44:53.358Z,47.70
2017-06-17T17:47:22.438Z,47.40
2017-06-17T17:49:50.831Z,47.40
2017-06-17T17:52:19.865Z,47.10
2017-06-17T17:54:48.137Z,47.10
2017-06-17T17:57:16.455Z,47.30
2017-06-17T17:59:44.738Z,48.10
2017-06-17T18:02:13.044Z,47.70
2017-06-17T18:04:42.204Z,47.70
2017-06-17T18:07:10.460Z,47.70
2017-06-17T18:09:38.760Z,47.80
2017-06-17T18:12:07.048Z,47.50
2017-06-17T18:14:35.325Z,48.00
2017-06-17T18:17:03.706Z,48.00
2017-06-17T18:19:31.981Z,47.80
2017-06-17T18:22:00.280Z,48.10
2017-06-17T18:24:29.308Z,48.90
2017-06-17T18:26:57.640Z,48.90
2017-06-17T18:29:25.916Z,49.10
2017-06-17T18:31:54.313Z,49.30
2017-06-17T18:34:23.346Z,50.20
2017-06-17T18:36:51.623Z,50.10
2017-06-17T18:39:19.925Z,49.90
2017-06-17T18:41:48.196Z,50.50
2017-06-17T18:44:16.469Z,50.50
2017-06-17T18:46:44.749Z,50.50
2017-06-17T18:49:13.027Z,51.10
2017-06-17T18:51:41.310Z,50.50
2017-06-17T18:54:09.562Z,50.00
2017-06-17T18:56:37.877Z,50.00
2017-06-17T18:59:06.140Z,50.20
2017-06-17T19:01:34.412Z,49.70
2017-06-17T19:04:02.692Z,50.20
2017-06-17T19:06:30.970Z,50.50
2017-06-17T19:08:59.277Z,50.50
2017-06-17T19:11:27.648Z,50.50
2017-06-17T19:13:56.725Z,51.90
2017-06-17T19:16:24.974Z,51.90
2017-06-17T19:18:53.233Z,52.10
2017-06-17T19:21:21.547Z,52.90
2017-06-17T19:23:49.807Z,52.90
2017-06-17T19:26:18.129Z,53.70
2017-06-17T19:28:47.196Z,54.70
2017-06-17T19:31:15.574Z,54.60
2017-06-17T19:33:43.852Z,54.70
2017-06-17T19:36:12.165Z,54.90
2017-06-17T19:38:41.209Z,55.80
2017-06-17T19:41:09.461Z,55.70
2017-06-17T19:43:37.778Z,56.10
2017-06-17T19:46:06.054Z,56.20
2017-06-17T19:48:34.438Z,56.80
2017-06-17T19:51:02.766Z,57.20
2017-06-17T19:53:31.096Z,57.40
2017-06-17T19:55:59.369Z,57.80
2017-06-17T19:58:27.644Z,57.60
2017-06-17T20:00:56.024Z,59.20
2017-06-17T20:03:24.293Z,59.40
2017-06-17T20:05:52.676Z,60.00
2017-06-17T20:08:20.948Z,59.10
2017-06-17T20:10:49.336Z,59.90
2017-06-17T20:13:17.601Z,59.40
2017-06-17T20:15:45.888Z,59.70
2017-06-17T20:18:14.174Z,59.70
2017-06-17T20:20:42.476Z,59.60
2017-06-17T20:23:11.525Z,59.80
2017-06-17T20:25:39.785Z,59.70
2017-06-17T20:28:08.197Z,59.90
2017-06-17T20:30:36.483Z,60.10
2017-06-17T20:33:04.861Z,60.60
2017-06-17T20:35:33.226Z,61.30
2017-06-17T20:38:01.545Z,63.30
2017-06-17T20:40:30.633Z,63.10
2017-06-17T20:42:59.018Z,63.70
2017-06-17T20:45:28.084Z,66.20
2017-06-17T20:47:56.358Z,66.00
2017-06-17T20:50:24.648Z,64.70
2017-06-17T20:52:52.944Z,65.60
2017-06-17T20:55:21.212Z,65.30
2017-06-17T20:57:49.502Z,66.50
2017-06-17T21:00:17.806Z,65.20
2017-06-17T21:02:46.066Z,65.20
2017-06-17T21:05:14.464Z,65.70
2017-06-17T21:07:42.838Z,66.00
2017-06-17T21:10:11.228Z,67.20
2017-06-17T21:12:39.510Z,67.70
2017-06-17T21:15:07.868Z,66.30
2017-06-17T21:17:36.127Z,66.30
2017-06-17T21:20:04.451Z,67.00
2017-06-17T21:22:32.756Z,66.70
2017-06-17T21:25:01.021Z,66.50
2017-06-17T21:27:29.308Z,66.70
2017-06-17T21:29:57.572Z,67.00
2017-06-17T21:32:25.841Z,66.70
2017-06-17T21:34:54.130Z,68.10
2017-06-17T21:37:22.404Z,66.90
2017-06-17T21:39:50.782Z,66.70
2017-06-17T21:42:19.049Z,67.00
2017-06-17T21:44:47.315Z,67.10
2017-06-17T21:47:16.388Z,68.40
2017-06-17T21:49:44.663Z,68.40
2017-06-17T21:52:12.983Z,67.20
2017-06-17T21:54:42.028Z,67.60
2017-06-17T21:57:11.088Z,67.80
2017-06-17T21:59:39.368Z,67.80
2017-06-17T22:02:07.644Z,67.30
2017-06-17T22:04:36.015Z,67.60
2017-06-17T22:07:05.074Z,68.00
2017-06-17T22:09:33.390Z,67.90
2017-06-17T22:12:02.711Z,67.90
2017-06-17T22:14:31.082Z,69.20
2017-06-17T22:16:59.363Z,68.30
2017-06-17T22:19:27.638Z,68.30
2017-06-17T22:21:55.922Z,70.20
2017-06-17T22:24:24.177Z,69.40
2017-06-17T22:26:52.513Z,71.00
2017-06-17T22:29:20.799Z,69.20
2017-06-17T22:31:49.068Z,70.60
2017-06-17T22:34:17.370Z,71.70
2017-06-17T22:36:46.400Z,71.10
2017-06-17T22:39:14.708Z,71.10
2017-06-17T22:41:43.101Z,70.70
2017-06-17T22:44:11.370Z,71.50
2017-06-17T22:46:39.671Z,70.50
2017-06-17T22:49:07.951Z,70.70
2017-06-17T22:51:36.232Z,70.80
2017-06-17T22:54:05.332Z,71.10
2017-06-17T22:56:34.385Z,71.70
2017-06-17T22:59:02.664Z,71.60
2017-06-17T23:01:30.961Z,72.00
2017-06-17T23:03:59.235Z,72.20
2017-06-17T23:06:27.503Z,72.40
2017-06-17T23:08:55.894Z,72.50
2017-06-17T23:11:24.170Z,72.80
2017-06-17T23:13:52.548Z,75.80
2017-06-17T23:16:20.813Z,75.60
2017-06-17T23:18:49.092Z,73.50
2017-06-17T23:21:17.404Z,73.60
2017-06-17T23:23:45.652Z,73.60
2017-06-17T23:26:13.931Z,74.10
2017-06-17T23:28:42.201Z,74.50
2017-06-17T23:31:10.576Z,74.20
2017-06-17T23:33:38.865Z,74.50
2017-06-17T23:36:07.133Z,74.50
2017-06-17T23:38:35.508Z,74.70
2017-06-17T23:41:03.779Z,75.70
2017-06-17T23:43:32.061Z,76.60
2017-06-17T23:46:00.364Z,75.70
2017-06-17T23:48:28.728Z,75.20
2017-06-17T23:50:57.014Z,75.30
2017-06-17T23:53:25.298Z,75.70
2017-06-17T23:55:53.661Z,76.40
2017-06-17T23:58:21.980Z,76.60
